Metar Aviation Weather Data     LHBP Budapest Ferenc Liszt International
Temperature
21°C Temperature
6°C Dewpoint
38% Humidity



Wind
23 KM/H
14 MPH
6 M/S
12 KTS



30°
ÉÉK
Current Conditions

Area Showers Area Showers
Pressure 1026.92 (hPa) - 30.32 (inHg)
Visibility 6.2 (mile) - 10 (km)
Repülőtér
Airport-code LHBP

Location: Budapest Ferenc Liszt International
Távolság: 14 (km)

Metar:
LHBP 271100Z 03012KT 9999 VCSH FEW050TCU SCT055 21/06 Q1027 BECMG FEW048CB SCT052

Idő: 2020-05-27 12:00 BST